sensor_id;sensor_type;location;lat;lon;timestamp;P1;durP1;ratioP1;P2;durP2;ratioP2
37789;SDS011;23628;51.434;6.988;2022-08-21T06:20:38;12.95;;;7.28;;
37789;SDS011;23628;51.434;6.988;2022-08-21T06:58:30;8.90;;;4.70;;
37789;SDS011;23628;51.434;6.988;2022-08-21T07:15:06;7.35;;;3.85;;
37789;SDS011;23628;51.434;6.988;2022-08-21T07:25:44;10.70;;;4.20;;
37789;SDS011;23628;51.434;6.988;2022-08-21T07:36:25;6.03;;;3.83;;
37789;SDS011;23628;51.434;6.988;2022-08-21T07:44:42;7.65;;;4.00;;
37789;SDS011;23628;51.434;6.988;2022-08-21T07:59:09;5.72;;;3.60;;
37789;SDS011;23628;51.434;6.988;2022-08-21T08:01:56;6.72;;;2.95;;
37789;SDS011;23628;51.434;6.988;2022-08-21T08:18:16;3.05;;;2.20;;
37789;SDS011;23628;51.434;6.988;2022-08-21T08:21:07;5.90;;;1.88;;
37789;SDS011;23628;51.434;6.988;2022-08-21T08:23:46;5.00;;;2.10;;
37789;SDS011;23628;51.434;6.988;2022-08-21T08:29:11;4.30;;;1.90;;
37789;SDS011;23628;51.434;6.988;2022-08-21T08:37:25;3.35;;;2.05;;
37789;SDS011;23628;51.434;6.988;2022-08-21T08:45:35;5.17;;;1.60;;
37789;SDS011;23628;51.434;6.988;2022-08-21T08:51:08;4.88;;;1.80;;
37789;SDS011;23628;51.434;6.988;2022-08-21T09:17:48;3.95;;;1.52;;
37789;SDS011;23628;51.434;6.988;2022-08-21T09:37:55;4.53;;;1.60;;
37789;SDS011;23628;51.434;6.988;2022-08-21T09:41:00;3.10;;;1.52;;
37789;SDS011;23628;51.434;6.988;2022-08-21T09:46:26;2.53;;;1.23;;
37789;SDS011;23628;51.434;6.988;2022-08-21T10:03:22;2.83;;;1.40;;
37789;SDS011;23628;51.434;6.988;2022-08-21T10:11:23;3.00;;;1.40;;
37789;SDS011;23628;51.434;6.988;2022-08-21T10:27:51;1.73;;;1.15;;
37789;SDS011;23628;51.434;6.988;2022-08-21T10:36:39;2.13;;;1.10;;
37789;SDS011;23628;51.434;6.988;2022-08-21T11:03:24;1.80;;;1.15;;
37789;SDS011;23628;51.434;6.988;2022-08-21T11:15:04;1.47;;;1.13;;
37789;SDS011;23628;51.434;6.988;2022-08-21T11:26:24;2.40;;;1.00;;
37789;SDS011;23628;51.434;6.988;2022-08-21T11:31:52;2.13;;;1.00;;
37789;SDS011;23628;51.434;6.988;2022-08-21T11:37:19;2.60;;;1.25;;
37789;SDS011;23628;51.434;6.988;2022-08-21T11:40:03;1.98;;;0.90;;
37789;SDS011;23628;51.434;6.988;2022-08-21T11:43:00;2.78;;;1.20;;
37789;SDS011;23628;51.434;6.988;2022-08-21T11:51:16;2.83;;;1.45;;
37789;SDS011;23628;51.434;6.988;2022-08-21T11:59:44;3.17;;;1.15;;
37789;SDS011;23628;51.434;6.988;2022-08-21T12:02:23;2.88;;;1.48;;
37789;SDS011;23628;51.434;6.988;2022-08-21T12:05:26;2.22;;;1.30;;
37789;SDS011;23628;51.434;6.988;2022-08-21T12:08:26;3.80;;;1.30;;
37789;SDS011;23628;51.434;6.988;2022-08-21T12:11:03;3.15;;;1.60;;
37789;SDS011;23628;51.434;6.988;2022-08-21T12:13:52;1.70;;;0.82;;
37789;SDS011;23628;51.434;6.988;2022-08-21T12:17:04;2.30;;;1.35;;
37789;SDS011;23628;51.434;6.988;2022-08-21T12:19:37;1.85;;;1.10;;
37789;SDS011;23628;51.434;6.988;2022-08-21T12:24:45;1.52;;;1.42;;
37789;SDS011;23628;51.434;6.988;2022-08-21T12:28:07;2.55;;;1.20;;
37789;SDS011;23628;51.434;6.988;2022-08-21T12:30:39;2.58;;;1.13;;
37789;SDS011;23628;51.434;6.988;2022-08-21T12:33:23;3.58;;;1.23;;
37789;SDS011;23628;51.434;6.988;2022-08-21T12:36:10;1.73;;;1.05;;
37789;SDS011;23628;51.434;6.988;2022-08-21T12:50:13;1.95;;;1.10;;
37789;SDS011;23628;51.434;6.988;2022-08-21T12:52:57;2.90;;;1.35;;
37789;SDS011;23628;51.434;6.988;2022-08-21T12:55:45;2.95;;;1.38;;
37789;SDS011;23628;51.434;6.988;2022-08-21T12:58:19;1.20;;;0.80;;
37789;SDS011;23628;51.434;6.988;2022-08-21T13:01:17;3.00;;;1.35;;
37789;SDS011;23628;51.434;6.988;2022-08-21T13:03:46;1.42;;;1.05;;
37789;SDS011;23628;51.434;6.988;2022-08-21T13:06:31;2.60;;;1.40;;
37789;SDS011;23628;51.434;6.988;2022-08-21T13:09:07;1.83;;;0.80;;
37789;SDS011;23628;51.434;6.988;2022-08-21T13:11:39;2.03;;;1.00;;
37789;SDS011;23628;51.434;6.988;2022-08-21T13:14:17;2.05;;;1.30;;
37789;SDS011;23628;51.434;6.988;2022-08-21T13:16:56;1.85;;;1.15;;
37789;SDS011;23628;51.434;6.988;2022-08-21T13:19:25;2.50;;;1.23;;
37789;SDS011;23628;51.434;6.988;2022-08-21T13:21:57;3.40;;;1.40;;
37789;SDS011;23628;51.434;6.988;2022-08-21T13:24:40;2.63;;;1.40;;
37789;SDS011;23628;51.434;6.988;2022-08-21T13:27:19;3.08;;;1.33;;
37789;SDS011;23628;51.434;6.988;2022-08-21T13:30:00;1.83;;;1.15;;
37789;SDS011;23628;51.434;6.988;2022-08-21T13:32:33;0.80;;;0.73;;
37789;SDS011;23628;51.434;6.988;2022-08-21T13:35:17;2.58;;;1.30;;
37789;SDS011;23628;51.434;6.988;2022-08-21T13:37:58;1.85;;;1.00;;
37789;SDS011;23628;51.434;6.988;2022-08-21T13:40:46;2.50;;;1.05;;
37789;SDS011;23628;51.434;6.988;2022-08-21T13:43:37;1.65;;;1.13;;
37789;SDS011;23628;51.434;6.988;2022-08-21T13:46:09;3.10;;;1.13;;
37789;SDS011;23628;51.434;6.988;2022-08-21T13:48:48;2.15;;;1.42;;
37789;SDS011;23628;51.434;6.988;2022-08-21T13:51:17;1.90;;;1.00;;
37789;SDS011;23628;51.434;6.988;2022-08-21T13:53:51;2.05;;;1.30;;
37789;SDS011;23628;51.434;6.988;2022-08-21T13:56:24;3.42;;;1.40;;
37789;SDS011;23628;51.434;6.988;2022-08-21T13:58:54;2.13;;;1.30;;
37789;SDS011;23628;51.434;6.988;2022-08-21T14:01:30;2.77;;;1.20;;
37789;SDS011;23628;51.434;6.988;2022-08-21T14:04:07;2.05;;;1.30;;
37789;SDS011;23628;51.434;6.988;2022-08-21T14:06:41;1.50;;;1.00;;
37789;SDS011;23628;51.434;6.988;2022-08-21T14:09:19;1.83;;;0.88;;
37789;SDS011;23628;51.434;6.988;2022-08-21T14:12:14;2.22;;;1.05;;
37789;SDS011;23628;51.434;6.988;2022-08-21T14:14:54;2.05;;;1.05;;
37789;SDS011;23628;51.434;6.988;2022-08-21T14:17:27;2.60;;;1.17;;
37789;SDS011;23628;51.434;6.988;2022-08-21T14:20:11;1.38;;;1.02;;
37789;SDS011;23628;51.434;6.988;2022-08-21T14:28:02;1.27;;;0.88;;
37789;SDS011;23628;51.434;6.988;2022-08-21T14:30:36;2.85;;;1.15;;
37789;SDS011;23628;51.434;6.988;2022-08-21T14:33:13;3.30;;;1.05;;
37789;SDS011;23628;51.434;6.988;2022-08-21T14:35:55;2.17;;;0.82;;
37789;SDS011;23628;51.434;6.988;2022-08-21T14:38:26;3.92;;;1.10;;
37789;SDS011;23628;51.434;6.988;2022-08-21T14:41:15;1.00;;;0.75;;
37789;SDS011;23628;51.434;6.988;2022-08-21T14:43:50;1.65;;;1.02;;
37789;SDS011;23628;51.434;6.988;2022-08-21T14:46:37;1.88;;;0.95;;
37789;SDS011;23628;51.434;6.988;2022-08-21T14:49:20;1.35;;;1.02;;
37789;SDS011;23628;51.434;6.988;2022-08-21T14:51:48;0.98;;;0.65;;
37789;SDS011;23628;51.434;6.988;2022-08-21T14:54:20;3.75;;;0.82;;
37789;SDS011;23628;51.434;6.988;2022-08-21T14:57:14;2.50;;;1.13;;
37789;SDS011;23628;51.434;6.988;2022-08-21T14:59:50;1.60;;;0.98;;
37789;SDS011;23628;51.434;6.988;2022-08-21T15:02:16;2.53;;;1.10;;
37789;SDS011;23628;51.434;6.988;2022-08-21T15:04:57;3.00;;;1.30;;
37789;SDS011;23628;51.434;6.988;2022-08-21T15:07:24;1.70;;;0.90;;
37789;SDS011;23628;51.434;6.988;2022-08-21T15:09:56;4.97;;;1.40;;
37789;SDS011;23628;51.434;6.988;2022-08-21T15:12:25;2.72;;;1.00;;
37789;SDS011;23628;51.434;6.988;2022-08-21T15:14:53;3.42;;;1.30;;
37789;SDS011;23628;51.434;6.988;2022-08-21T15:17:28;2.45;;;1.08;;
37789;SDS011;23628;51.434;6.988;2022-08-21T15:30:30;2.28;;;1.20;;
37789;SDS011;23628;51.434;6.988;2022-08-21T15:33:03;2.50;;;0.95;;
37789;SDS011;23628;51.434;6.988;2022-08-21T15:35:34;3.00;;;1.20;;
37789;SDS011;23628;51.434;6.988;2022-08-21T15:38:10;2.10;;;0.98;;
37789;SDS011;23628;51.434;6.988;2022-08-21T15:40:42;2.17;;;0.88;;
37789;SDS011;23628;51.434;6.988;2022-08-21T15:43:28;1.70;;;1.00;;
37789;SDS011;23628;51.434;6.988;2022-08-21T15:46:12;2.60;;;1.30;;
37789;SDS011;23628;51.434;6.988;2022-08-21T15:48:41;3.95;;;1.48;;
37789;SDS011;23628;51.434;6.988;2022-08-21T15:53:47;4.18;;;1.25;;
37789;SDS011;23628;51.434;6.988;2022-08-21T15:56:23;3.28;;;1.30;;
37789;SDS011;23628;51.434;6.988;2022-08-21T15:58:59;2.70;;;1.17;;
37789;SDS011;23628;51.434;6.988;2022-08-21T16:01:39;3.88;;;1.30;;
37789;SDS011;23628;51.434;6.988;2022-08-21T16:04:12;1.85;;;1.10;;
37789;SDS011;23628;51.434;6.988;2022-08-21T16:06:59;4.47;;;1.23;;
37789;SDS011;23628;51.434;6.988;2022-08-21T16:09:34;2.63;;;1.20;;
37789;SDS011;23628;51.434;6.988;2022-08-21T16:12:06;2.15;;;1.30;;
37789;SDS011;23628;51.434;6.988;2022-08-21T16:14:39;2.97;;;1.38;;
37789;SDS011;23628;51.434;6.988;2022-08-21T16:17:09;2.67;;;1.10;;
37789;SDS011;23628;51.434;6.988;2022-08-21T16:19:37;2.35;;;1.33;;
37789;SDS011;23628;51.434;6.988;2022-08-21T16:22:14;2.75;;;1.40;;
37789;SDS011;23628;51.434;6.988;2022-08-21T16:24:41;1.73;;;1.05;;
37789;SDS011;23628;51.434;6.988;2022-08-21T16:27:10;2.05;;;1.10;;
37789;SDS011;23628;51.434;6.988;2022-08-21T16:29:44;1.90;;;1.27;;
37789;SDS011;23628;51.434;6.988;2022-08-21T16:32:12;2.42;;;1.40;;
37789;SDS011;23628;51.434;6.988;2022-08-21T16:34:44;2.08;;;1.00;;
37789;SDS011;23628;51.434;6.988;2022-08-21T16:37:19;2.88;;;1.23;;
37789;SDS011;23628;51.434;6.988;2022-08-21T16:45:18;2.38;;;1.20;;
37789;SDS011;23628;51.434;6.988;2022-08-21T16:47:58;2.47;;;1.20;;
37789;SDS011;23628;51.434;6.988;2022-08-21T16:50:28;2.15;;;1.10;;
37789;SDS011;23628;51.434;6.988;2022-08-21T16:52:56;1.42;;;1.13;;
37789;SDS011;23628;51.434;6.988;2022-08-21T16:55:34;1.90;;;1.17;;
37789;SDS011;23628;51.434;6.988;2022-08-21T16:58:15;2.53;;;1.60;;
37789;SDS011;23628;51.434;6.988;2022-08-21T17:01:06;1.80;;;0.90;;
37789;SDS011;23628;51.434;6.988;2022-08-21T17:06:22;3.58;;;1.33;;
37789;SDS011;23628;51.434;6.988;2022-08-21T17:08:56;4.43;;;1.67;;
37789;SDS011;23628;51.434;6.988;2022-08-21T17:11:32;2.35;;;1.35;;
37789;SDS011;23628;51.434;6.988;2022-08-21T17:14:20;3.23;;;1.70;;
37789;SDS011;23628;51.434;6.988;2022-08-21T17:16:53;2.35;;;1.30;;
37789;SDS011;23628;51.434;6.988;2022-08-21T17:19:24;1.15;;;1.05;;
37789;SDS011;23628;51.434;6.988;2022-08-21T17:21:51;2.60;;;1.55;;
37789;SDS011;23628;51.434;6.988;2022-08-21T17:24:18;2.95;;;1.48;;
37789;SDS011;23628;51.434;6.988;2022-08-21T17:26:56;2.70;;;1.57;;
